createdAt,value
2022-09-15T00:01:10.477Z,19.18
2022-09-15T00:03:37.635Z,19.10
2022-09-15T00:06:04.590Z,19.27
2022-09-15T00:08:31.707Z,19.23
2022-09-15T00:11:11.606Z,19.40
2022-09-15T00:13:39.781Z,19.43
2022-09-15T00:16:08.509Z,19.45
2022-09-15T00:18:36.479Z,19.28
2022-09-15T00:21:12.151Z,19.30
2022-09-15T00:23:38.918Z,19.11
2022-09-15T00:26:10.901Z,19.08
2022-09-15T00:28:38.658Z,19.13
2022-09-15T00:31:07.931Z,19.02
2022-09-15T00:33:35.764Z,18.98
2022-09-15T00:36:05.742Z,18.91
2022-09-15T00:38:36.031Z,18.89
2022-09-15T00:41:04.287Z,18.83
2022-09-15T00:44:02.121Z,18.99
2022-09-15T00:46:35.362Z,18.94
2022-09-15T00:49:13.780Z,18.87
2022-09-15T00:51:43.563Z,18.91
2022-09-15T00:54:16.111Z,18.75
2022-09-15T00:56:45.501Z,18.66
2022-09-15T00:59:21.007Z,18.82
2022-09-15T01:01:52.799Z,18.73
2022-09-15T01:04:27.301Z,18.86
2022-09-15T01:06:59.661Z,18.82
2022-09-15T01:09:35.780Z,18.79
2022-09-15T01:12:03.542Z,18.76
2022-09-15T01:14:30.316Z,18.76
2022-09-15T01:17:32.584Z,18.67
2022-09-15T01:20:37.552Z,18.70
2022-09-15T01:23:04.191Z,18.67
2022-09-15T01:26:08.392Z,18.71
2022-09-15T01:28:50.071Z,18.64
2022-09-15T01:31:24.165Z,18.60
2022-09-15T01:34:13.675Z,18.52
2022-09-15T01:36:47.274Z,18.63
2022-09-15T01:39:25.719Z,18.51
2022-09-15T01:41:57.603Z,18.50
2022-09-15T01:44:46.077Z,18.57
2022-09-15T01:47:16.980Z,18.39
2022-09-15T01:49:50.710Z,18.59
2022-09-15T01:52:21.358Z,18.50
2022-09-15T01:54:53.138Z,18.44
2022-09-15T01:57:22.505Z,18.46
2022-09-15T01:59:50.468Z,18.53
2022-09-15T02:02:23.028Z,18.43
2022-09-15T02:04:55.024Z,18.45
2022-09-15T02:07:35.582Z,18.60
2022-09-15T02:10:13.106Z,18.48
2022-09-15T02:13:06.833Z,18.54
2022-09-15T02:15:42.769Z,18.34
2022-09-15T02:18:14.147Z,18.50
2022-09-15T02:20:52.695Z,18.47
2022-09-15T02:23:30.048Z,18.50
2022-09-15T02:26:04.929Z,18.39
2022-09-15T02:28:34.973Z,18.46
2022-09-15T02:31:05.077Z,18.37
2022-09-15T02:33:36.923Z,18.49
2022-09-15T02:36:04.895Z,18.46
2022-09-15T02:38:36.919Z,18.35
2022-09-15T02:41:03.854Z,18.53
2022-09-15T02:43:31.045Z,18.49
2022-09-15T02:46:02.156Z,18.45
2022-09-15T02:48:28.908Z,18.46
2022-09-15T02:50:55.599Z,18.32
2022-09-15T02:53:22.274Z,18.47
2022-09-15T02:55:49.505Z,18.39
2022-09-15T02:58:16.206Z,18.40
2022-09-15T03:00:43.002Z,18.37
2022-09-15T03:03:09.824Z,18.37
2022-09-15T03:05:36.535Z,18.41
2022-09-15T03:08:03.302Z,18.44
2022-09-15T03:10:30.445Z,18.36
2022-09-15T03:12:57.126Z,18.36
2022-09-15T03:15:26.222Z,18.34
2022-09-15T03:17:53.637Z,18.35
2022-09-15T03:20:27.727Z,18.30
2022-09-15T03:22:54.929Z,18.23
2022-09-15T03:25:21.974Z,18.23
2022-09-15T03:27:48.619Z,18.19
2022-09-15T03:30:15.753Z,18.24
2022-09-15T03:32:42.417Z,18.27
2022-09-15T03:35:09.637Z,18.00
2022-09-15T03:37:36.405Z,18.08
2022-09-15T03:40:04.318Z,17.94
2022-09-15T03:42:31.055Z,17.91
2022-09-15T03:44:57.884Z,17.90
2022-09-15T03:47:24.661Z,17.82
2022-09-15T03:49:51.463Z,17.97
2022-09-15T03:52:18.196Z,18.03
2022-09-15T03:54:44.824Z,18.03
2022-09-15T03:57:11.541Z,18.12
2022-09-15T03:59:38.232Z,18.06
2022-09-15T04:02:04.977Z,18.20
2022-09-15T04:04:31.669Z,18.19
2022-09-15T04:06:58.330Z,18.19
2022-09-15T04:09:25.686Z,18.24
2022-09-15T04:11:52.343Z,18.33
2022-09-15T04:14:18.973Z,18.26
2022-09-15T04:16:45.628Z,18.09
2022-09-15T04:19:12.533Z,18.31
2022-09-15T04:21:39.238Z,18.21
2022-09-15T04:24:06.089Z,18.28
2022-09-15T04:26:36.072Z,18.35
2022-09-15T04:29:05.074Z,18.43
2022-09-15T04:31:33.352Z,18.48
2022-09-15T04:34:00.582Z,18.52
2022-09-15T04:36:28.714Z,18.55
2022-09-15T04:38:56.758Z,18.47
2022-09-15T04:41:26.023Z,18.59
2022-09-15T04:43:52.969Z,18.51
2022-09-15T04:46:20.131Z,18.53
2022-09-15T04:48:48.662Z,18.36
2022-09-15T04:51:18.287Z,18.38
2022-09-15T04:54:08.127Z,18.36
2022-09-15T04:56:34.922Z,18.41
2022-09-15T04:59:04.171Z,18.37
2022-09-15T05:01:33.998Z,18.43
2022-09-15T05:04:03.874Z,18.42
2022-09-15T05:06:30.935Z,18.51
2022-09-15T05:08:58.378Z,18.48
2022-09-15T05:11:25.856Z,18.46
2022-09-15T05:13:53.148Z,18.40
2022-09-15T05:16:23.434Z,18.55
2022-09-15T05:18:51.897Z,18.55
2022-09-15T05:21:20.951Z,18.45
2022-09-15T05:23:48.485Z,18.53
2022-09-15T05:26:17.988Z,18.56
2022-09-15T05:28:44.902Z,18.35
2022-09-15T05:31:17.750Z,18.58
2022-09-15T05:33:45.751Z,18.52
2022-09-15T05:36:14.985Z,18.50
2022-09-15T05:38:41.938Z,18.41
2022-09-15T05:41:11.748Z,18.47
2022-09-15T05:43:39.763Z,18.31
2022-09-15T05:46:07.608Z,18.05
2022-09-15T05:48:35.184Z,18.10
2022-09-15T05:51:02.325Z,18.05
2022-09-15T05:53:30.931Z,18.06
2022-09-15T05:55:59.534Z,18.05
2022-09-15T05:58:27.595Z,17.95
2022-09-15T06:00:55.545Z,18.10
2022-09-15T06:03:27.537Z,18.07
2022-09-15T06:05:59.899Z,18.02
2022-09-15T06:08:31.122Z,17.84
2022-09-15T06:11:20.426Z,18.12
2022-09-15T06:13:58.541Z,18.12
2022-09-15T06:16:25.428Z,17.98
2022-09-15T06:18:53.543Z,18.07
2022-09-15T06:21:25.370Z,18.21
2022-09-15T06:23:53.966Z,18.12
2022-09-15T06:26:21.379Z,18.28
2022-09-15T06:29:01.594Z,18.39
2022-09-15T06:31:31.418Z,18.35
2022-09-15T06:33:59.346Z,18.30
2022-09-15T06:36:28.425Z,18.26
2022-09-15T06:38:56.249Z,18.29
2022-09-15T06:41:23.018Z,18.34
2022-09-15T06:43:49.753Z,18.31
2022-09-15T06:46:22.252Z,18.35
2022-09-15T06:48:49.253Z,18.35
2022-09-15T06:51:17.472Z,18.48
2022-09-15T06:53:45.294Z,18.59
2022-09-15T06:56:18.397Z,18.72
2022-09-15T06:58:45.915Z,18.63
2022-09-15T07:01:15.004Z,18.79
2022-09-15T07:03:43.938Z,18.70
2022-09-15T07:06:15.022Z,18.84
2022-09-15T07:08:42.294Z,18.85
2022-09-15T07:11:10.225Z,18.76
2022-09-15T07:13:37.107Z,18.69
2022-09-15T07:16:05.768Z,18.71
2022-09-15T07:18:33.437Z,18.61
2022-09-15T07:21:03.278Z,18.53
2022-09-15T07:23:30.162Z,18.63
2022-09-15T07:26:20.976Z,18.71
2022-09-15T07:28:50.250Z,18.85
2022-09-15T07:31:20.010Z,18.73
2022-09-15T07:33:47.220Z,18.60
2022-09-15T07:36:14.800Z,18.36
2022-09-15T07:38:44.022Z,18.15
2022-09-15T07:41:13.862Z,18.16
2022-09-15T07:43:54.410Z,18.07
2022-09-15T07:46:23.691Z,18.01
2022-09-15T07:48:53.105Z,17.67
2022-09-15T07:51:20.242Z,17.43
2022-09-15T07:53:48.371Z,17.30
2022-09-15T07:56:17.847Z,17.28
2022-09-15T07:58:45.648Z,17.46
2022-09-15T08:01:14.669Z,17.59
2022-09-15T08:03:46.600Z,17.65
2022-09-15T08:06:13.902Z,17.45
2022-09-15T08:08:44.006Z,17.51
2022-09-15T08:11:18.876Z,17.42
2022-09-15T08:13:52.342Z,17.41
2022-09-15T08:16:23.612Z,17.44
2022-09-15T08:18:53.736Z,17.42
2022-09-15T08:21:21.882Z,17.34
2022-09-15T08:23:56.280Z,17.18
2022-09-15T08:26:24.206Z,17.10
2022-09-15T08:28:51.193Z,17.11
2022-09-15T08:31:21.325Z,17.34
2022-09-15T08:33:49.854Z,17.34
2022-09-15T08:36:17.032Z,17.54
2022-09-15T08:38:45.211Z,17.53
2022-09-15T08:41:22.439Z,17.62
2022-09-15T08:44:03.972Z,17.50
2022-09-15T08:46:44.144Z,17.50
2022-09-15T08:49:41.230Z,17.59
2022-09-15T08:52:20.565Z,17.90
2022-09-15T08:54:50.251Z,18.04
2022-09-15T08:57:26.019Z,17.74
2022-09-15T08:59:54.830Z,17.70
2022-09-15T09:02:27.432Z,17.78
2022-09-15T09:05:06.099Z,17.84
2022-09-15T09:08:15.622Z,17.74
2022-09-15T09:11:05.791Z,17.54
2022-09-15T09:13:44.993Z,17.40
2022-09-15T09:16:33.524Z,17.42
2022-09-15T09:19:16.138Z,17.49
2022-09-15T09:22:09.689Z,17.55
2022-09-15T09:24:48.396Z,17.48
2022-09-15T09:27:20.106Z,17.39
2022-09-15T09:29:49.685Z,17.45
2022-09-15T09:32:21.854Z,17.52
2022-09-15T09:35:14.516Z,17.66
2022-09-15T09:37:41.349Z,17.56
2022-09-15T09:40:13.867Z,17.69
2022-09-15T09:42:40.791Z,17.64
2022-09-15T09:45:12.875Z,17.62
2022-09-15T09:47:41.011Z,17.60
2022-09-15T09:50:32.415Z,17.73
2022-09-15T09:52:59.655Z,17.47
2022-09-15T09:55:27.790Z,17.38
2022-09-15T09:58:12.269Z,17.22
2022-09-15T10:00:40.930Z,17.36
2022-09-15T10:03:29.308Z,17.35
2022-09-15T10:06:06.199Z,17.29
2022-09-15T10:08:33.596Z,17.00
2022-09-15T10:11:10.368Z,16.92
2022-09-15T10:13:50.797Z,16.82
2022-09-15T10:16:20.044Z,16.74
2022-09-15T10:18:54.014Z,17.24
2022-09-15T10:21:24.656Z,17.23
2022-09-15T10:23:51.566Z,17.43
2022-09-15T10:26:23.406Z,17.32
2022-09-15T10:29:23.318Z,17.88
2022-09-15T10:31:50.420Z,17.73
2022-09-15T10:34:37.827Z,17.73
2022-09-15T10:37:20.989Z,17.49
2022-09-15T10:39:57.004Z,17.45
2022-09-15T10:47:54.234Z,17.76
2022-09-15T10:50:42.552Z,17.73
2022-09-15T10:53:22.181Z,17.80
2022-09-15T10:56:03.882Z,18.04
2022-09-15T10:58:42.132Z,18.12
2022-09-15T11:01:29.826Z,18.28
2022-09-15T11:04:18.061Z,18.35
2022-09-15T11:07:03.058Z,18.38
2022-09-15T11:09:38.738Z,18.33
2022-09-15T11:12:49.179Z,18.21
2022-09-15T11:15:40.878Z,18.40
2022-09-15T11:18:29.718Z,18.47
2022-09-15T11:21:27.042Z,18.39
2022-09-15T11:24:31.167Z,18.20
2022-09-15T11:27:45.398Z,18.38
2022-09-15T11:30:21.680Z,18.59
2022-09-15T11:33:03.701Z,18.65
2022-09-15T11:35:45.127Z,18.62
2022-09-15T11:38:28.161Z,19.59
2022-09-15T11:41:08.803Z,19.53
2022-09-15T11:43:47.633Z,19.41
2022-09-15T11:46:23.551Z,19.46
2022-09-15T11:49:11.150Z,19.97
2022-09-15T11:51:47.253Z,20.47
2022-09-15T11:54:48.532Z,20.67
2022-09-15T11:57:28.229Z,20.20
2022-09-15T12:00:02.373Z,19.60
2022-09-15T12:02:48.080Z,19.75
2022-09-15T12:05:26.995Z,19.93
2022-09-15T12:08:06.700Z,20.26
2022-09-15T12:10:44.052Z,20.51
2022-09-15T12:13:30.249Z,20.66
2022-09-15T12:15:57.497Z,20.61
2022-09-15T12:18:42.863Z,20.43
2022-09-15T12:21:34.873Z,20.42
2022-09-15T12:24:29.366Z,20.57
2022-09-15T12:26:58.690Z,20.95
2022-09-15T12:29:28.365Z,21.02
2022-09-15T12:32:22.851Z,20.55
2022-09-15T12:34:55.671Z,20.59
2022-09-15T12:37:24.288Z,20.63
2022-09-15T12:39:51.759Z,20.31
2022-09-15T12:42:31.318Z,19.73
2022-09-15T12:45:04.373Z,19.57
2022-09-15T12:47:40.723Z,19.48
2022-09-15T12:50:44.800Z,19.97
2022-09-15T12:53:26.677Z,21.44
2022-09-15T12:56:00.126Z,21.35
2022-09-15T12:58:46.065Z,22.14
2022-09-15T13:01:19.007Z,21.77
2022-09-15T13:03:46.092Z,21.08
2022-09-15T13:06:16.118Z,21.22
2022-09-15T13:08:44.796Z,22.42
2022-09-15T13:11:29.921Z,23.04
2022-09-15T13:14:08.731Z,22.71
2022-09-15T13:16:43.736Z,23.14
2022-09-15T13:19:32.711Z,23.50
2022-09-15T13:22:02.250Z,23.89
2022-09-15T13:24:59.202Z,23.40
2022-09-15T13:27:52.149Z,23.17
2022-09-15T13:30:22.048Z,22.69
2022-09-15T13:33:26.225Z,23.04
2022-09-15T13:36:24.586Z,23.00
2022-09-15T13:39:23.066Z,23.24
2022-09-15T13:42:17.434Z,22.94
2022-09-15T13:45:08.812Z,22.35
2022-09-15T13:47:59.744Z,21.96
2022-09-15T13:50:51.391Z,21.62
2022-09-15T13:53:25.559Z,21.69
2022-09-15T13:55:55.524Z,21.63
2022-09-15T14:01:14.318Z,21.66
2022-09-15T14:03:53.686Z,21.03
2022-09-15T14:06:30.265Z,20.81
2022-09-15T14:09:00.757Z,20.74
2022-09-15T14:11:33.428Z,20.77
2022-09-15T14:14:00.934Z,21.01
2022-09-15T14:16:50.348Z,21.20
2022-09-15T14:19:36.394Z,21.52
2022-09-15T14:22:18.755Z,21.80
2022-09-15T14:24:45.870Z,21.14
2022-09-15T14:27:21.252Z,21.19
2022-09-15T14:29:50.246Z,21.61
2022-09-15T14:32:18.249Z,21.99
2022-09-15T14:34:45.815Z,22.30
2022-09-15T14:37:18.450Z,22.07
2022-09-15T14:40:01.984Z,21.62
2022-09-15T14:42:40.015Z,21.11
2022-09-15T14:48:01.876Z,20.69
2022-09-15T14:50:33.235Z,20.20
2022-09-15T14:53:20.667Z,19.93
2022-09-15T14:56:07.858Z,19.82
2022-09-15T14:58:38.669Z,19.83
2022-09-15T15:01:27.427Z,19.76
2022-09-15T15:04:10.017Z,19.76
2022-09-15T15:06:45.226Z,19.64
2022-09-15T15:09:47.007Z,19.61
2022-09-15T15:12:23.748Z,19.72
2022-09-15T15:14:54.052Z,19.89
2022-09-15T15:17:45.451Z,19.98
2022-09-15T15:20:16.621Z,20.13
2022-09-15T15:22:44.461Z,20.35
2022-09-15T15:25:22.790Z,20.57
2022-09-15T15:28:34.834Z,20.84
2022-09-15T15:31:12.585Z,21.09
2022-09-15T15:33:46.790Z,20.98
2022-09-15T15:36:13.753Z,20.88
2022-09-15T15:38:55.552Z,20.73
2022-09-15T15:41:26.968Z,20.55
2022-09-15T15:44:09.207Z,20.39
2022-09-15T15:46:56.197Z,20.30
2022-09-15T15:49:29.393Z,20.29
2022-09-15T15:51:58.448Z,20.18
2022-09-15T15:54:26.227Z,19.97
2022-09-15T15:57:27.069Z,20.09
2022-09-15T15:59:58.404Z,20.03
2022-09-15T16:02:27.088Z,20.06
2022-09-15T16:04:54.881Z,20.03
2022-09-15T16:07:23.964Z,20.01
2022-09-15T16:09:54.062Z,19.90
2022-09-15T16:12:21.345Z,19.99
2022-09-15T16:14:48.092Z,19.94
2022-09-15T16:17:14.816Z,19.85
2022-09-15T16:19:41.542Z,19.72
2022-09-15T16:22:19.158Z,19.56
2022-09-15T16:24:46.139Z,19.37
2022-09-15T16:27:17.968Z,19.59
2022-09-15T16:29:44.985Z,19.31
2022-09-15T16:32:22.002Z,19.64
2022-09-15T16:34:53.804Z,19.71
2022-09-15T16:37:21.939Z,19.61
2022-09-15T16:39:51.969Z,19.52
2022-09-15T16:42:18.968Z,19.52
2022-09-15T16:44:46.221Z,19.47
2022-09-15T16:47:15.825Z,19.34
2022-09-15T16:49:42.627Z,19.18
2022-09-15T16:52:13.518Z,19.25
2022-09-15T16:54:41.678Z,19.07
2022-09-15T16:57:08.354Z,19.14
2022-09-15T16:59:35.054Z,18.98
2022-09-15T17:02:01.752Z,18.71
2022-09-15T17:04:28.484Z,19.10
2022-09-15T17:06:55.178Z,18.84
2022-09-15T17:09:24.676Z,19.05
2022-09-15T17:11:51.833Z,18.89
2022-09-15T17:14:18.649Z,19.10
2022-09-15T17:16:47.320Z,18.96
2022-09-15T17:19:13.916Z,18.85
2022-09-15T17:21:40.629Z,18.62
2022-09-15T17:24:08.849Z,18.75
2022-09-15T17:26:35.892Z,18.81
2022-09-15T17:29:02.487Z,18.80
2022-09-15T17:31:29.249Z,18.84
2022-09-15T17:33:56.301Z,18.75
2022-09-15T17:36:23.047Z,18.79
2022-09-15T17:38:49.733Z,18.31
2022-09-15T17:41:19.486Z,18.72
2022-09-15T17:43:46.610Z,18.96
2022-09-15T17:46:13.663Z,18.67
2022-09-15T17:48:40.514Z,19.00
2022-09-15T17:51:09.763Z,19.10
2022-09-15T17:53:38.701Z,19.08
2022-09-15T17:56:05.464Z,18.62
2022-09-15T17:58:33.280Z,18.48
2022-09-15T18:01:00.497Z,18.15
2022-09-15T18:03:30.310Z,18.18
2022-09-15T18:05:59.295Z,18.14
2022-09-15T18:08:36.354Z,18.06
2022-09-15T18:11:05.098Z,18.33
2022-09-15T18:13:32.232Z,18.35
2022-09-15T18:16:06.199Z,18.36
2022-09-15T18:18:33.590Z,18.23
2022-09-15T18:21:00.346Z,18.28
2022-09-15T18:23:30.701Z,17.97
2022-09-15T18:25:58.035Z,18.02
2022-09-15T18:28:24.795Z,17.98
2022-09-15T18:30:52.109Z,18.00
2022-09-15T18:33:21.953Z,17.97
2022-09-15T18:35:50.733Z,17.75
2022-09-15T18:38:18.770Z,17.77
2022-09-15T18:40:48.953Z,17.75
2022-09-15T18:43:16.634Z,17.49
2022-09-15T18:45:43.419Z,17.27
2022-09-15T18:48:12.938Z,17.32
2022-09-15T18:50:41.144Z,17.34
2022-09-15T18:53:08.198Z,17.31
2022-09-15T18:55:35.125Z,17.25
2022-09-15T18:58:02.592Z,17.13
2022-09-15T19:00:29.455Z,17.10
2022-09-15T19:03:01.536Z,17.07
2022-09-15T19:05:30.426Z,17.02
2022-09-15T19:07:57.691Z,16.97
2022-09-15T19:10:26.506Z,16.72
2022-09-15T19:12:53.898Z,16.71
2022-09-15T19:15:23.589Z,16.65
2022-09-15T19:17:51.220Z,16.34
2022-09-15T19:20:52.959Z,16.15
2022-09-15T19:23:19.577Z,15.94
2022-09-15T19:25:46.196Z,16.07
2022-09-15T19:28:12.931Z,16.12
2022-09-15T19:30:39.607Z,16.13
2022-09-15T19:33:06.347Z,16.06
2022-09-15T19:35:32.966Z,15.96
2022-09-15T19:37:59.728Z,15.53
2022-09-15T19:40:26.715Z,15.82
2022-09-15T19:42:53.586Z,15.79
2022-09-15T19:45:20.233Z,15.83
2022-09-15T19:47:46.941Z,15.75
2022-09-15T19:50:13.835Z,15.60
2022-09-15T19:52:40.575Z,15.60
2022-09-15T19:55:09.519Z,15.76
2022-09-15T19:57:41.161Z,15.52
2022-09-15T20:00:09.854Z,15.40
2022-09-15T20:02:36.673Z,15.32
2022-09-15T20:05:04.424Z,15.33
2022-09-15T20:07:31.695Z,15.31
2022-09-15T20:09:58.773Z,15.41
2022-09-15T20:12:26.383Z,15.15
2022-09-15T20:14:53.124Z,15.03
2022-09-15T20:17:19.757Z,14.80
2022-09-15T20:19:46.478Z,15.26
2022-09-15T20:22:13.237Z,15.36
2022-09-15T20:24:40.161Z,15.38
2022-09-15T20:27:08.746Z,15.20
2022-09-15T20:29:35.411Z,14.86
2022-09-15T20:32:16.189Z,15.35
2022-09-15T20:34:42.937Z,15.39
2022-09-15T20:37:09.669Z,15.34
2022-09-15T20:39:36.402Z,15.34
2022-09-15T20:42:03.227Z,15.32
2022-09-15T20:44:29.935Z,15.32
2022-09-15T20:46:56.756Z,15.28
2022-09-15T20:49:23.403Z,15.21
2022-09-15T20:51:51.566Z,15.15
2022-09-15T20:54:18.157Z,15.06
2022-09-15T20:56:44.875Z,15.01
2022-09-15T20:59:13.817Z,14.88
2022-09-15T21:01:40.657Z,14.97
2022-09-15T21:04:09.192Z,14.94
2022-09-15T21:06:37.007Z,14.80
2022-09-15T21:09:04.354Z,14.77
2022-09-15T21:11:31.332Z,14.67
2022-09-15T21:13:58.621Z,14.66
2022-09-15T21:16:27.832Z,14.66
2022-09-15T21:18:56.327Z,14.65
2022-09-15T21:21:25.832Z,14.60
2022-09-15T21:24:04.245Z,14.49
2022-09-15T21:26:36.093Z,14.54
2022-09-15T21:29:02.844Z,14.52
2022-09-15T21:31:32.698Z,14.57
2022-09-15T21:33:59.839Z,14.13
2022-09-15T21:36:29.610Z,14.67
2022-09-15T21:38:58.712Z,14.78
2022-09-15T21:41:29.009Z,14.78
2022-09-15T21:43:58.135Z,14.76
2022-09-15T21:46:27.638Z,14.75
2022-09-15T21:48:55.916Z,14.66
2022-09-15T21:51:25.198Z,14.76
2022-09-15T21:53:57.313Z,14.78
2022-09-15T21:56:25.544Z,14.80
2022-09-15T21:58:52.165Z,14.83
2022-09-15T22:01:25.285Z,14.92
2022-09-15T22:03:54.224Z,14.92
2022-09-15T22:06:31.364Z,14.62
2022-09-15T22:08:59.550Z,14.94
2022-09-15T22:11:26.485Z,14.88
2022-09-15T22:13:53.942Z,14.79
2022-09-15T22:16:22.582Z,14.73
2022-09-15T22:18:50.101Z,14.69
2022-09-15T22:21:23.633Z,14.54
2022-09-15T22:23:51.752Z,14.64
2022-09-15T22:26:23.915Z,14.59
2022-09-15T22:28:50.632Z,14.21
2022-09-15T22:31:19.173Z,14.50
2022-09-15T22:33:46.866Z,14.43
2022-09-15T22:36:16.544Z,14.33
2022-09-15T22:38:43.793Z,14.47
2022-09-15T22:41:13.178Z,14.44
2022-09-15T22:43:41.669Z,14.42
2022-09-15T22:46:08.967Z,14.33
2022-09-15T22:48:40.934Z,14.28
2022-09-15T22:51:10.861Z,14.23
2022-09-15T22:53:37.617Z,14.15
2022-09-15T22:56:07.558Z,14.21
2022-09-15T22:58:35.518Z,14.22
2022-09-15T23:01:07.633Z,14.39
2022-09-15T23:03:34.280Z,14.42
2022-09-15T23:06:02.020Z,14.50
2022-09-15T23:08:29.580Z,14.60
2022-09-15T23:11:10.756Z,14.50
2022-09-15T23:13:37.743Z,14.46
2022-09-15T23:16:05.733Z,14.49
2022-09-15T23:18:38.130Z,14.36
2022-09-15T23:21:07.622Z,14.27
2022-09-15T23:23:36.221Z,14.25
2022-09-15T23:26:04.757Z,14.31
2022-09-15T23:28:31.959Z,14.20
2022-09-15T23:30:59.558Z,14.33
2022-09-15T23:33:29.459Z,14.37
2022-09-15T23:35:58.984Z,14.46
2022-09-15T23:38:25.806Z,14.58
2022-09-15T23:40:52.450Z,14.63
2022-09-15T23:43:19.089Z,14.59
2022-09-15T23:45:46.257Z,14.72
2022-09-15T23:48:13.884Z,14.76
2022-09-15T23:50:41.292Z,14.89
2022-09-15T23:53:08.387Z,14.89
2022-09-15T23:55:36.704Z,14.88
2022-09-15T23:58:04.685Z,14.88
